Time;durP1;ratioP1;P1;durP2;ratioP2;P2;SDS_P1;SDS_P2;PMS_P1;PMS_P2;Temp;Humidity;BMP_temperature;BMP_pressure;BME280_temperature;BME280_humidity;BME280_pressure;Samples;Min_cycle;Max_cycle;Signal;HPM_P1;HPM_P2
2023/04/20 00:00:35;;;;;;;2.13;1.00;;;;;;;-143.29;100.00;62188.47;4900217;29;20237;-81
2023/04/20 00:03:02;;;;;;;2.80;1.10;;;;;;;-143.29;100.00;62188.47;4900524;29;20383;-81
2023/04/20 00:05:29;;;;;;;2.03;0.82;;;;;;;-143.29;100.00;62188.47;4900685;29;20033;-81
2023/04/20 00:07:54;;;;;;;1.75;1.00;;;;;;;-143.29;100.00;62188.47;4900475;29;20029;-81
2023/04/20 00:10:19;;;;;;;2.85;1.13;;;;;;;-143.29;100.00;62188.47;4900442;29;20040;-81
2023/04/20 00:12:45;;;;;;;2.40;0.63;;;;;;;-143.29;100.00;62188.47;4900191;29;20036;-80
2023/04/20 00:15:10;;;;;;;3.15;1.10;;;;;;;-143.29;100.00;62188.47;4900432;29;20475;-81
2023/04/20 00:17:38;;;;;;;3.13;1.00;;;;;;;-143.29;100.00;62188.47;4900214;29;20475;-81
2023/04/20 00:20:05;;;;;;;1.98;0.80;;;;;;;-143.29;100.00;62188.47;4900375;29;20025;-81
2023/04/20 00:22:30;;;;;;;1.77;0.93;;;;;;;-143.29;100.00;62188.47;4900182;29;20033;-81
2023/04/20 00:24:55;;;;;;;4.15;0.90;;;;;;;-143.29;100.00;62188.47;4900206;29;20502;-81
2023/04/20 00:27:21;;;;;;;3.83;0.93;;;;;;;-143.29;100.00;62188.47;4900035;29;20048;-80
2023/04/20 00:29:46;;;;;;;1.80;0.90;;;;;;;-143.29;100.00;62188.47;4899049;29;20122;-81
2023/04/20 00:32:11;;;;;;;2.13;0.93;;;;;;;-143.29;100.00;62188.47;4899987;29;20419;-81
2023/04/20 00:34:38;;;;;;;1.60;0.90;;;;;;;-143.29;100.00;62188.47;4900129;29;20361;-80
2023/04/20 00:37:03;;;;;;;3.30;1.40;;;;;;;-143.29;100.00;62188.47;4899834;29;20084;-81
2023/04/20 00:39:28;;;;;;;2.70;0.90;;;;;;;-143.29;100.00;62188.47;4899941;29;20066;-81
2023/04/20 00:41:54;;;;;;;1.73;1.23;;;;;;;-143.29;100.00;62188.47;4899921;29;20116;-81
2023/04/20 00:44:19;;;;;;;3.05;1.30;;;;;;;-143.29;100.00;62188.47;4899780;29;20071;-81
2023/04/20 00:46:45;;;;;;;1.27;0.70;;;;;;;-143.29;100.00;62188.47;4899085;29;20032;-81
2023/04/20 00:49:10;;;;;;;5.65;0.98;;;;;;;-143.29;100.00;62188.47;4899318;29;20056;-81
2023/04/20 00:51:36;;;;;;;2.17;0.80;;;;;;;-143.29;100.00;62188.47;4899826;29;20029;-81
2023/04/20 00:54:02;;;;;;;3.22;1.00;;;;;;;-143.29;100.00;62188.47;4899639;29;20398;-81
2023/04/20 00:56:27;;;;;;;2.42;0.70;;;;;;;-143.29;100.00;62188.47;4899493;29;20032;-81
2023/04/20 00:58:53;;;;;;;2.92;0.90;;;;;;;-143.29;100.00;62188.47;4899311;29;20480;-81
2023/04/20 01:01:19;;;;;;;3.00;0.90;;;;;;;-143.29;100.00;62188.47;4898389;29;20402;-81
2023/04/20 01:03:44;;;;;;;2.97;0.77;;;;;;;-143.29;100.00;62188.47;4898708;29;20029;-81
2023/04/20 01:06:13;;;;;;;2.30;1.15;;;;;;;-143.29;100.00;62188.47;4899567;29;20032;-81
2023/04/20 01:08:46;;;;;;;5.07;1.00;;;;;;;-143.29;100.00;62188.47;4898129;29;20036;-81
2023/04/20 01:11:12;;;;;;;1.67;0.70;;;;;;;-143.29;100.00;62188.47;4899436;29;20024;-81
2023/04/20 01:13:37;;;;;;;2.65;0.90;;;;;;;-143.29;100.00;62188.47;4898505;29;20032;-80
2023/04/20 01:16:02;;;;;;;3.95;1.10;;;;;;;-143.29;100.00;62188.47;4898138;29;20067;-81
2023/04/20 01:18:28;;;;;;;7.20;0.95;;;;;;;-143.29;100.00;62188.47;4897967;29;20060;-81
2023/04/20 01:20:53;;;;;;;1.50;0.88;;;;;;;-143.29;100.00;62188.47;4898257;29;20020;-80
2023/04/20 01:23:19;;;;;;;3.92;1.42;;;;;;;-143.29;100.00;62188.47;4898120;29;20052;-81
2023/04/20 01:25:44;;;;;;;4.38;0.80;;;;;;;-143.29;100.00;62188.47;4897798;29;20024;-81
2023/04/20 01:28:11;;;;;;;2.53;0.90;;;;;;;-143.29;100.00;62188.47;4898248;29;20029;-81
2023/04/20 01:30:37;;;;;;;7.03;1.13;;;;;;;-143.29;100.00;62188.47;4896998;29;20039;-81
2023/04/20 01:33:02;;;;;;;17.63;1.10;;;;;;;-143.29;100.00;62188.47;4898050;29;20502;-81
2023/04/20 01:35:28;;;;;;;3.13;0.75;;;;;;;-143.29;100.00;62188.47;4898068;29;20025;-81
2023/04/20 01:37:53;;;;;;;1.42;0.82;;;;;;;-143.29;100.00;62188.47;4897800;29;20033;-81
2023/04/20 01:40:19;;;;;;;2.45;0.93;;;;;;;-143.29;100.00;62188.47;4897810;29;20032;-81
2023/04/20 01:42:44;;;;;;;3.92;1.10;;;;;;;-143.29;100.00;62188.47;4897840;29;20479;-81
2023/04/20 01:45:10;;;;;;;4.07;0.80;;;;;;;-143.29;100.00;62188.47;4897619;29;20031;-81
2023/04/20 01:47:35;;;;;;;1.23;0.90;;;;;;;-143.29;100.00;62188.47;4897728;29;20032;-81
2023/04/20 01:50:01;;;;;;;3.42;0.90;;;;;;;-143.29;100.00;62188.47;4896451;29;20033;-81
2023/04/20 01:52:26;;;;;;;3.90;1.15;;;;;;;-143.29;100.00;62188.47;4898077;29;20072;-81
2023/04/20 01:54:52;;;;;;;3.20;1.23;;;;;;;-143.29;100.00;62188.47;4905200;29;20043;-81
2023/04/20 01:57:17;;;;;;;1.45;0.90;;;;;;;-143.29;100.00;62188.47;4897019;29;20091;-81
2023/04/20 01:59:42;;;;;;;2.30;1.40;;;;;;;-143.29;100.00;62188.47;4896917;29;20753;-81
2023/04/20 02:02:08;;;;;;;1.67;0.80;;;;;;;-143.29;100.00;62188.47;4896086;29;20495;-81
2023/04/20 02:04:33;;;;;;;1.42;1.00;;;;;;;-143.29;100.00;62188.47;4897687;29;20483;-81
2023/04/20 02:06:58;;;;;;;3.45;0.82;;;;;;;-143.29;100.00;62188.47;4897360;29;20028;-81
2023/04/20 02:09:24;;;;;;;1.75;0.98;;;;;;;-143.29;100.00;62188.47;4897301;29;20054;-81
2023/04/20 02:11:49;;;;;;;2.80;0.98;;;;;;;-143.29;100.00;62188.47;4897818;29;20430;-81
2023/04/20 02:14:15;;;;;;;4.97;1.10;;;;;;;-143.29;100.00;62188.47;4859787;29;1131583;-81
2023/04/20 02:16:41;;;;;;;4.72;1.10;;;;;;;-143.29;100.00;62188.47;4898779;29;20059;-81
2023/04/20 02:19:06;;;;;;;2.15;1.00;;;;;;;-143.29;100.00;62188.47;4897892;29;20032;-81
2023/04/20 02:21:32;;;;;;;7.72;1.38;;;;;;;-143.29;100.00;62188.47;4898085;29;20498;-81
2023/04/20 02:23:57;;;;;;;4.38;1.10;;;;;;;-143.29;100.00;62188.47;4898127;29;20035;-81
2023/04/20 02:26:22;;;;;;;4.82;1.23;;;;;;;-143.29;100.00;62188.47;4898130;29;20387;-81
2023/04/20 02:28:48;;;;;;;4.82;1.38;;;;;;;-143.29;100.00;62188.47;4897810;29;20028;-81
2023/04/20 02:31:13;;;;;;;4.57;1.42;;;;;;;-143.29;100.00;62188.47;4897112;29;20060;-81
2023/04/20 02:33:39;;;;;;;4.00;0.98;;;;;;;-143.29;100.00;62188.47;4896883;29;20068;-80
2023/04/20 02:36:05;;;;;;;5.82;1.40;;;;;;;-143.29;100.00;62188.47;4897703;29;20031;-81
2023/04/20 02:38:30;;;;;;;4.00;1.38;;;;;;;-143.29;100.00;62188.47;4897678;29;20394;-81
2023/04/20 02:40:56;;;;;;;4.97;1.13;;;;;;;-143.29;100.00;62188.47;4897743;29;20443;-81
2023/04/20 02:43:21;;;;;;;7.50;1.35;;;;;;;-143.29;100.00;62188.47;4897718;29;20032;-81
2023/04/20 02:45:46;;;;;;;4.75;0.95;;;;;;;-143.29;100.00;62188.47;4898006;29;20048;-81
2023/04/20 02:48:12;;;;;;;3.47;1.52;;;;;;;-143.29;100.00;62188.47;4897716;29;20032;-81
2023/04/20 02:50:37;;;;;;;3.40;1.27;;;;;;;-143.29;100.00;62188.47;4897662;29;20047;-81
2023/04/20 02:53:03;;;;;;;3.30;1.00;;;;;;;-143.29;100.00;62188.47;4896367;29;20020;-81
2023/04/20 02:55:28;;;;;;;4.57;1.15;;;;;;;-143.29;100.00;62188.47;4897531;29;20476;-81
2023/04/20 02:57:54;;;;;;;3.05;0.90;;;;;;;-143.29;100.00;62188.47;4897250;29;20044;-81
2023/04/20 03:00:19;;;;;;;3.42;1.15;;;;;;;-143.29;100.00;62188.47;4896562;29;20690;-81
2023/04/20 03:02:45;;;;;;;3.13;1.20;;;;;;;-143.29;100.00;62188.47;4897461;29;20040;-81
2023/04/20 03:05:11;;;;;;;4.78;1.50;;;;;;;-143.29;100.00;62188.47;4897224;29;20028;-81
2023/04/20 03:07:36;;;;;;;3.15;1.20;;;;;;;-143.29;100.00;62188.47;4897226;29;20029;-81
2023/04/20 03:10:02;;;;;;;5.20;1.58;;;;;;;-143.29;100.00;62188.47;4897272;29;20075;-81
2023/04/20 03:12:27;;;;;;;1.98;1.13;;;;;;;-143.29;100.00;62188.47;4896964;29;20048;-81
2023/04/20 03:14:52;;;;;;;2.28;1.25;;;;;;;-143.29;100.00;62188.47;4897093;29;20111;-81
2023/04/20 03:17:18;;;;;;;3.67;1.60;;;;;;;-143.29;100.00;62188.47;4897088;29;20036;-81
2023/04/20 03:19:43;;;;;;;7.95;1.85;;;;;;;-143.29;100.00;62188.47;4897161;29;20041;-81
2023/04/20 03:22:08;;;;;;;2.47;1.10;;;;;;;-143.29;100.00;62188.47;4897102;29;20035;-81
2023/04/20 03:24:34;;;;;;;7.53;2.55;;;;;;;-143.29;100.00;62188.47;4896792;29;20032;-81
2023/04/20 03:26:59;;;;;;;5.20;1.45;;;;;;;-143.29;100.00;62188.47;4896698;29;20039;-81
2023/04/20 03:29:25;;;;;;;3.17;1.38;;;;;;;-143.29;100.00;62188.47;4896130;29;20033;-81
2023/04/20 03:31:50;;;;;;;3.78;1.30;;;;;;;-143.29;100.00;62188.47;4896808;29;20107;-81
2023/04/20 03:34:15;;;;;;;3.15;1.20;;;;;;;-143.29;100.00;62188.47;4896868;29;20123;-81
2023/04/20 03:36:41;;;;;;;2.92;1.35;;;;;;;-143.29;100.00;62188.47;4896614;29;20060;-81
2023/04/20 03:39:06;;;;;;;3.60;1.50;;;;;;;-143.29;100.00;62188.47;4896657;29;20028;-81
2023/04/20 03:41:31;;;;;;;5.38;1.73;;;;;;;-143.29;100.00;62188.47;4896893;29;20033;-80
2023/04/20 03:43:57;;;;;;;4.80;1.92;;;;;;;-143.29;100.00;62188.47;4897153;29;20375;-80
2023/04/20 03:46:22;;;;;;;3.67;1.63;;;;;;;-143.29;100.00;62188.47;4896661;29;20479;-80
2023/04/20 03:48:48;;;;;;;3.65;1.58;;;;;;;-143.29;100.00;62188.47;4895527;29;20032;-80
2023/04/20 03:51:13;;;;;;;4.57;1.60;;;;;;;-143.29;100.00;62188.47;4896722;29;20029;-80
2023/04/20 03:53:39;;;;;;;3.05;1.38;;;;;;;-143.29;100.00;62188.47;4896704;29;20025;-80
2023/04/20 03:56:04;;;;;;;2.60;1.50;;;;;;;-143.29;100.00;62188.47;4896429;29;20479;-80
2023/04/20 03:58:30;;;;;;;4.88;1.88;;;;;;;-143.29;100.00;62188.47;4896540;29;20033;-81
2023/04/20 04:01:06;;;;;;;2.83;1.80;;;;;;;-143.29;100.00;62188.47;4895719;29;20039;-81
2023/04/20 04:03:33;;;;;;;4.55;1.85;;;;;;;-143.29;100.00;62188.47;4896611;29;20024;-81
2023/04/20 04:05:58;;;;;;;3.50;1.40;;;;;;;-143.29;100.00;62188.47;4896383;29;20065;-81
2023/04/20 04:08:23;;;;;;;1.88;1.50;;;;;;;-143.29;100.00;62188.47;4896537;29;20067;-81
2023/04/20 04:10:49;;;;;;;5.97;1.60;;;;;;;-143.29;100.00;62188.47;4896646;29;20052;-81
2023/04/20 04:13:14;;;;;;;3.58;1.60;;;;;;;-143.29;100.00;62188.47;4896523;29;20028;-81
2023/04/20 04:15:40;;;;;;;5.03;1.80;;;;;;;-143.29;100.00;62188.47;4896737;29;20071;-81
2023/04/20 04:18:05;;;;;;;6.72;1.88;;;;;;;-143.29;100.00;62188.47;4896187;29;20037;-81
2023/04/20 04:20:30;;;;;;;5.85;1.92;;;;;;;-143.29;100.00;62188.47;4895167;29;20028;-81
2023/04/20 04:22:56;;;;;;;4.57;1.65;;;;;;;-143.29;100.00;62188.47;4896522;29;20021;-81
2023/04/20 04:25:22;;;;;;;4.53;1.75;;;;;;;-143.29;100.00;62188.47;4896504;29;20395;-81
2023/04/20 04:27:47;;;;;;;5.43;2.00;;;;;;;-143.29;100.00;62188.47;4896890;29;20033;-81
2023/04/20 04:30:13;;;;;;;3.33;2.05;;;;;;;-143.29;100.00;62188.47;4895431;29;20037;-81
2023/04/20 04:32:38;;;;;;;5.47;2.08;;;;;;;-143.29;100.00;62188.47;4895079;29;20029;-81
2023/04/20 04:35:04;;;;;;;6.55;2.33;;;;;;;-143.29;100.00;62188.47;4896350;29;20028;-81
2023/04/20 04:37:29;;;;;;;5.35;2.17;;;;;;;-143.29;100.00;62188.47;4896192;29;20444;-81
2023/04/20 04:39:56;;;;;;;6.00;1.70;;;;;;;-143.29;100.00;62188.47;4899913;29;20029;-81
2023/04/20 04:42:23;;;;;;;4.38;1.92;;;;;;;-143.29;100.00;62188.47;4900039;29;20036;-81
2023/04/20 04:44:50;;;;;;;4.93;2.53;;;;;;;-143.29;100.00;62188.47;4899795;29;20029;-81
2023/04/20 04:47:16;;;;;;;4.75;1.88;;;;;;;-143.29;100.00;62188.47;4899589;29;20160;-81
2023/04/20 04:49:42;;;;;;;3.65;1.63;;;;;;;-143.29;100.00;62188.47;4898475;29;20035;-81
2023/04/20 04:52:07;;;;;;;6.20;2.30;;;;;;;-143.29;100.00;62188.47;4899793;29;20029;-81
2023/04/20 04:54:33;;;;;;;3.95;2.20;;;;;;;-143.29;100.00;62188.47;4899749;29;20043;-81
2023/04/20 04:56:58;;;;;;;6.80;2.47;;;;;;;-143.29;100.00;62188.47;4899686;29;20036;-81
2023/04/20 04:59:23;;;;;;;5.10;2.08;;;;;;;-143.29;100.00;62188.47;4898680;29;20044;-81
2023/04/20 05:01:49;;;;;;;5.40;2.15;;;;;;;-143.29;100.00;62188.47;4899441;29;20033;-81
2023/04/20 05:04:14;;;;;;;4.20;2.25;;;;;;;-143.29;100.00;62188.47;4899660;29;20025;-81
2023/04/20 05:06:39;;;;;;;8.25;2.78;;;;;;;-143.29;100.00;62188.47;4899458;29;20025;-81
2023/04/20 05:09:05;;;;;;;4.53;2.10;;;;;;;-143.29;100.00;62188.47;4899362;29;20035;-81
2023/04/20 05:11:30;;;;;;;5.50;2.38;;;;;;;-143.29;100.00;62188.47;4899427;29;20113;-81
2023/04/20 05:13:56;;;;;;;3.97;2.10;;;;;;;-143.29;100.00;62188.47;4897985;29;20056;-80
2023/04/20 05:16:21;;;;;;;6.13;2.33;;;;;;;-143.29;100.00;62188.47;4899397;29;20029;-81
2023/04/20 05:18:46;;;;;;;6.38;2.47;;;;;;;-143.29;100.00;62188.47;4899166;29;20028;-81
2023/04/20 05:21:12;;;;;;;4.20;2.15;;;;;;;-143.29;100.00;62188.47;4899268;29;20044;-81
2023/04/20 05:23:37;;;;;;;6.68;2.30;;;;;;;-143.29;100.00;62188.47;4899216;29;20036;-81
2023/04/20 05:26:02;;;;;;;5.28;2.05;;;;;;;-143.29;100.00;62188.47;4899093;29;20091;-81
2023/04/20 05:28:28;;;;;;;12.15;2.30;;;;;;;-143.29;100.00;62188.47;4898068;29;20033;-81
2023/04/20 05:30:54;;;;;;;5.15;2.33;;;;;;;-143.29;100.00;62188.47;4897710;29;20037;-81
2023/04/20 05:33:19;;;;;;;5.90;2.20;;;;;;;-143.29;100.00;62188.47;4899112;29;20033;-81
2023/04/20 05:35:45;;;;;;;3.30;2.00;;;;;;;-143.29;100.00;62188.47;4898958;29;20060;-81
2023/04/20 05:38:10;;;;;;;7.95;2.53;;;;;;;-143.29;100.00;62188.47;4898872;29;20056;-81
2023/04/20 05:40:36;;;;;;;6.50;2.45;;;;;;;-143.29;100.00;62188.47;4898380;29;20032;-81
2023/04/20 05:43:01;;;;;;;6.82;2.75;;;;;;;-143.29;100.00;62188.47;4898503;29;20502;-81
2023/04/20 05:45:27;;;;;;;6.90;2.45;;;;;;;-143.29;100.00;62188.47;4898869;29;20029;-81
2023/04/20 05:47:53;;;;;;;6.07;2.55;;;;;;;-143.29;100.00;62188.47;4896900;29;20484;-80
2023/04/20 05:50:18;;;;;;;5.32;2.33;;;;;;;-143.29;100.00;62188.47;4897583;29;20235;-81
2023/04/20 05:52:44;;;;;;;5.80;2.70;;;;;;;-143.29;100.00;62188.47;4898243;29;20217;-80
2023/04/20 05:55:09;;;;;;;6.10;2.45;;;;;;;-143.29;100.00;62188.47;4898674;29;20028;-80
2023/04/20 05:57:41;;;;;;;7.35;2.25;;;;;;;-143.29;100.00;62188.47;4898185;29;20492;-81
2023/04/20 06:00:15;;;;;;;7.55;2.70;;;;;;;-143.29;100.00;62188.47;4897500;29;20071;-80
2023/04/20 06:02:41;;;;;;;4.93;2.40;;;;;;;-143.29;100.00;62188.47;4897744;29;20505;-82
2023/04/20 06:05:09;;;;;;;6.68;2.38;;;;;;;-143.29;100.00;62188.47;4898168;29;20036;-82
2023/04/20 06:07:34;;;;;;;5.00;2.22;;;;;;;-143.29;100.00;62188.47;4896270;29;20475;-82
2023/04/20 06:10:00;;;;;;;8.40;3.10;;;;;;;-143.29;100.00;62188.47;4898371;29;20080;-82
2023/04/20 06:12:28;;;;;;;8.25;2.58;;;;;;;-143.29;100.00;62188.47;4898264;29;20033;-82
2023/04/20 06:14:54;;;;;;;9.15;2.63;;;;;;;-143.29;100.00;62188.47;4898189;29;20024;-82
2023/04/20 06:17:19;;;;;;;6.90;2.95;;;;;;;-143.29;100.00;62188.47;4898054;29;20040;-83
2023/04/20 06:19:46;;;;;;;8.88;2.88;;;;;;;-143.29;100.00;62188.47;4898147;29;20032;-84
2023/04/20 06:22:12;;;;;;;8.07;2.72;;;;;;;-143.29;100.00;62188.47;4898179;29;20506;-83
2023/04/20 06:24:37;;;;;;;7.78;2.50;;;;;;;-143.29;100.00;62188.47;4898007;29;20040;-83
2023/04/20 06:27:03;;;;;;;5.75;2.13;;;;;;;-143.29;100.00;62188.47;4898027;29;20052;-82
2023/04/20 06:29:28;;;;;;;7.15;2.90;;;;;;;-143.29;100.00;62188.47;4897091;29;20040;-83
2023/04/20 06:31:53;;;;;;;8.45;3.20;;;;;;;-143.29;100.00;62188.47;4897978;29;20032;-83
2023/04/20 06:34:19;;;;;;;3.63;1.88;;;;;;;-143.29;100.00;62188.47;4897807;29;20484;-82
2023/04/20 06:36:44;;;;;;;8.38;2.90;;;;;;;-143.29;100.00;62188.47;4897719;29;20033;-82
2023/04/20 06:39:12;;;;;;;10.82;2.70;;;;;;;-143.29;100.00;62188.47;4897743;29;20380;-83
2023/04/20 06:41:38;;;;;;;8.40;2.47;;;;;;;-143.29;100.00;62188.47;4897822;29;20063;-83
2023/04/20 06:44:04;;;;;;;8.25;2.60;;;;;;;-143.29;100.00;62188.47;4897729;29;20029;-82
2023/04/20 06:46:29;;;;;;;8.25;2.65;;;;;;;-143.29;100.00;62188.47;4897574;29;20103;-85
2023/04/20 06:48:55;;;;;;;7.07;3.00;;;;;;;-143.29;100.00;62188.47;4909902;29;20140;-86
2023/04/20 06:51:20;;;;;;;7.20;3.28;;;;;;;-143.29;100.00;62188.47;4896261;29;20036;-85
2023/04/20 06:53:45;;;;;;;7.70;2.75;;;;;;;-143.29;100.00;62188.47;4897329;29;20611;-86
2023/04/20 06:56:11;;;;;;;7.22;2.80;;;;;;;-143.29;100.00;62188.47;4896715;29;20119;-83
2023/04/20 06:58:36;;;;;;;6.97;2.78;;;;;;;-143.29;100.00;62188.47;4895319;29;20051;-84
2023/04/20 07:01:02;;;;;;;7.97;3.10;;;;;;;-143.29;100.00;62188.47;4896196;29;20024;-85
2023/04/20 07:03:27;;;;;;;11.55;3.30;;;;;;;-143.29;100.00;62188.47;4896660;29;20033;-88
2023/04/20 07:05:52;;;;;;;9.80;2.47;;;;;;;-143.29;100.00;62188.47;4896960;29;20555;-87
2023/04/20 07:08:18;;;;;;;11.55;3.22;;;;;;;-143.29;100.00;62188.47;4897098;29;20480;-88
2023/04/20 07:10:43;;;;;;;8.30;2.53;;;;;;;-143.29;100.00;62188.47;4897379;29;20092;-88
2023/04/20 07:13:08;;;;;;;9.40;2.63;;;;;;;-143.29;100.00;62188.47;4897245;29;20123;-94
2023/04/20 07:15:34;;;;;;;6.25;2.17;;;;;;;-143.29;100.00;62188.47;4897123;29;20063;-85
2023/04/20 07:17:59;;;;;;;10.75;3.08;;;;;;;-143.29;100.00;62188.47;4894826;29;20036;-85
2023/04/20 07:20:25;;;;;;;4.60;2.15;;;;;;;-143.29;100.00;62188.47;4894387;29;20502;-84
2023/04/20 07:22:50;;;;;;;8.93;2.25;;;;;;;-143.29;100.00;62188.47;4896122;29;20044;-86
2023/04/20 07:25:16;;;;;;;6.28;3.10;;;;;;;-143.29;100.00;62188.47;4896901;29;20028;-86
2023/04/20 07:27:42;;;;;;;7.07;2.25;;;;;;;-143.29;100.00;62188.47;4896814;29;20380;-85
2023/04/20 07:30:09;;;;;;;8.50;2.40;;;;;;;-143.29;100.00;62188.47;4893077;29;20032;-85
2023/04/20 07:32:36;;;;;;;7.90;1.92;;;;;;;-143.29;100.00;62188.47;4895415;29;20079;-84
2023/04/20 07:35:02;;;;;;;3.70;1.83;;;;;;;-143.29;100.00;62188.47;4895018;29;20032;-84
2023/04/20 07:37:28;;;;;;;6.00;2.10;;;;;;;-143.29;100.00;62188.47;4896690;29;20032;-84
2023/04/20 07:39:53;;;;;;;6.60;2.35;;;;;;;-143.29;100.00;62188.47;4895886;29;20059;-85
2023/04/20 07:42:20;;;;;;;6.50;2.05;;;;;;;-143.29;100.00;62188.47;4893542;29;20051;-85
2023/04/20 07:44:45;;;;;;;5.65;1.80;;;;;;;-143.29;100.00;62188.47;4896502;29;20399;-86
2023/04/20 07:47:10;;;;;;;9.25;2.00;;;;;;;-143.29;100.00;62188.47;4896445;29;20028;-85
2023/04/20 07:49:39;;;;;;;13.35;3.28;;;;;;;-143.29;100.00;62188.47;4896846;29;20055;-83
2023/04/20 07:52:05;;;;;;;8.88;2.00;;;;;;;-143.29;100.00;62188.47;4896650;29;20371;-85
2023/04/20 07:54:31;;;;;;;5.07;1.73;;;;;;;-143.29;100.00;62188.47;4896779;29;20036;-85
2023/04/20 07:56:57;;;;;;;6.57;2.22;;;;;;;-143.29;100.00;62188.47;4896077;29;20045;-85
2023/04/20 07:59:22;;;;;;;5.40;1.98;;;;;;;-143.29;100.00;62188.47;4896730;29;20032;-85
2023/04/20 08:01:47;;;;;;;7.63;2.03;;;;;;;-143.29;100.00;62188.47;4896239;29;20032;-84
2023/04/20 08:04:13;;;;;;;6.93;1.70;;;;;;;-143.29;100.00;62188.47;4896234;29;20035;-85
2023/04/20 08:06:38;;;;;;;6.63;2.03;;;;;;;-143.29;100.00;62188.47;4895964;29;20061;-89
2023/04/20 08:09:04;;;;;;;13.40;1.88;;;;;;;-143.29;100.00;62188.47;4895986;29;20355;-86
2023/04/20 08:11:29;;;;;;;5.50;1.38;;;;;;;-143.29;100.00;62188.47;4896149;29;20037;-85
2023/04/20 08:13:54;;;;;;;13.88;3.70;;;;;;;-143.29;100.00;62188.47;4898890;29;20428;-86
2023/04/20 08:16:20;;;;;;;12.43;3.50;;;;;;;-143.29;100.00;62188.47;4897423;29;20072;-86
2023/04/20 08:18:45;;;;;;;11.60;3.35;;;;;;;-143.29;100.00;62188.47;4898162;29;20041;-86
2023/04/20 08:21:10;;;;;;;9.82;2.95;;;;;;;-143.29;100.00;62188.47;4899941;29;20032;-85
2023/04/20 08:23:36;;;;;;;15.57;2.63;;;;;;;-143.29;100.00;62188.47;4900381;29;20395;-85
2023/04/20 08:26:03;;;;;;;9.55;2.35;;;;;;;-143.29;100.00;62188.47;4899810;29;20091;-85
2023/04/20 08:28:28;;;;;;;8.07;2.25;;;;;;;-143.29;100.00;62188.47;4900050;29;20043;-86
2023/04/20 08:30:53;;;;;;;10.70;2.45;;;;;;;-143.29;100.00;62188.47;4900213;29;20032;-86
2023/04/20 08:33:19;;;;;;;9.18;2.13;;;;;;;-143.29;100.00;62188.47;4900053;29;20036;-85
2023/04/20 08:35:44;;;;;;;9.98;2.42;;;;;;;-143.29;100.00;62188.47;4899876;29;20076;-85
2023/04/20 08:38:10;;;;;;;8.48;2.63;;;;;;;-143.29;100.00;62188.47;4899882;29;20024;-86
2023/04/20 08:40:36;;;;;;;8.25;1.73;;;;;;;-143.29;100.00;62188.47;4900170;29;20063;-85
2023/04/20 08:43:01;;;;;;;11.20;2.15;;;;;;;-143.29;100.00;62188.47;4897854;29;20032;-86
2023/04/20 08:45:29;;;;;;;4.80;1.77;;;;;;;-143.29;100.00;62188.47;4899876;29;20028;-86
2023/04/20 08:47:57;;;;;;;8.05;1.83;;;;;;;-143.29;100.00;62188.47;4899804;29;20032;-86
2023/04/20 08:50:22;;;;;;;5.90;1.95;;;;;;;-143.29;100.00;62188.47;4899714;29;20035;-86
2023/04/20 08:52:47;;;;;;;6.80;2.15;;;;;;;-143.29;100.00;62188.47;4899946;29;20020;-86
2023/04/20 08:55:19;;;;;;;5.60;2.10;;;;;;;-143.29;100.00;62188.47;4898958;29;20036;-86
2023/04/20 08:57:48;;;;;;;8.30;1.90;;;;;;;-143.29;100.00;62188.47;4899510;29;20029;-86
2023/04/20 09:00:14;;;;;;;5.68;1.80;;;;;;;-143.29;100.00;62188.47;4898959;29;20032;-86
2023/04/20 09:02:54;;;;;;;7.00;1.90;;;;;;;-143.29;100.00;62188.47;4898326;29;20388;-86
2023/04/20 09:05:27;;;;;;;5.80;2.30;;;;;;;-143.29;100.00;62188.47;4899704;29;20032;-86
2023/04/20 09:07:55;;;;;;;6.25;1.45;;;;;;;-143.29;100.00;62188.47;4898349;29;20032;-85
2023/04/20 09:10:22;;;;;;;8.82;1.83;;;;;;;-143.29;100.00;62188.47;4899346;29;20032;-85
2023/04/20 09:12:48;;;;;;;6.30;2.10;;;;;;;-143.29;100.00;62188.47;4898265;29;20028;-86
2023/04/20 09:15:24;;;;;;;4.95;1.70;;;;;;;-143.29;100.00;62188.47;4899029;29;20124;-85
2023/04/20 09:17:49;;;;;;;6.20;1.77;;;;;;;-143.29;100.00;62188.47;4899163;29;20035;-86
2023/04/20 09:20:15;;;;;;;4.93;2.17;;;;;;;-143.29;100.00;62188.47;4899242;29;20024;-85
2023/04/20 09:22:40;;;;;;;7.63;2.20;;;;;;;-143.29;100.00;62188.47;4899251;29;20483;-86
2023/04/20 09:25:15;;;;;;;7.82;2.10;;;;;;;-143.29;100.00;62188.47;4898658;29;20067;-86
2023/04/20 09:27:41;;;;;;;6.18;2.55;;;;;;;-143.29;100.00;62188.47;4897814;29;20037;-85
2023/04/20 09:30:08;;;;;;;5.82;1.60;;;;;;;-143.29;100.00;62188.47;4899216;29;20036;-85
2023/04/20 09:32:34;;;;;;;4.43;1.80;;;;;;;-143.29;100.00;62188.47;4899069;29;20511;-86
2023/04/20 09:35:00;;;;;;;6.53;1.70;;;;;;;-143.29;100.00;62188.47;4899154;29;20396;-86
2023/04/20 09:37:25;;;;;;;4.70;2.10;;;;;;;-143.29;100.00;62188.47;4897683;29;20037;-85
2023/04/20 09:39:57;;;;;;;4.82;1.77;;;;;;;-143.29;100.00;62188.47;4897524;29;20103;-85
2023/04/20 09:42:26;;;;;;;5.65;1.90;;;;;;;-143.29;100.00;62188.47;4897476;29;20024;-86
2023/04/20 09:44:52;;;;;;;7.05;1.90;;;;;;;-143.29;100.00;62188.47;4898894;29;20116;-85
2023/04/20 09:47:17;;;;;;;3.80;1.58;;;;;;;-143.29;100.00;62188.47;4898841;29;20123;-85
2023/04/20 09:49:45;;;;;;;8.45;2.35;;;;;;;-143.29;100.00;62188.47;4898727;29;20040;-86
2023/04/20 09:52:14;;;;;;;5.72;1.88;;;;;;;-143.29;100.00;62188.47;4897541;29;20028;-85
2023/04/20 09:54:41;;;;;;;2.45;1.33;;;;;;;-143.29;100.00;62188.47;4898632;29;20056;-85
2023/04/20 09:57:07;;;;;;;5.93;2.03;;;;;;;-143.29;100.00;62188.47;4898604;29;20028;-85
2023/04/20 09:59:33;;;;;;;4.97;1.48;;;;;;;-143.29;100.00;62188.47;4898644;29;20507;-85
2023/04/20 10:01:58;;;;;;;7.78;1.70;;;;;;;-143.29;100.00;62188.47;4898582;29;20029;-85
2023/04/20 10:04:23;;;;;;;3.28;1.67;;;;;;;-143.29;100.00;62188.47;4898612;29;20021;-85
2023/04/20 10:06:54;;;;;;;5.60;2.05;;;;;;;-143.29;100.00;62188.47;4898384;29;20032;-85
2023/04/20 10:09:27;;;;;;;3.65;1.80;;;;;;;-143.29;100.00;62188.47;4898283;29;20029;-85
2023/04/20 10:12:04;;;;;;;6.80;2.13;;;;;;;-143.29;100.00;62188.47;4897480;29;20040;-85
2023/04/20 10:14:30;;;;;;;4.90;2.63;;;;;;;-143.29;100.00;62188.47;4897608;29;20403;-85
2023/04/20 10:17:04;;;;;;;6.32;2.78;;;;;;;-143.29;100.00;62188.47;4898146;29;20103;-85
2023/04/20 10:19:40;;;;;;;6.60;2.63;;;;;;;-143.29;100.00;62188.47;4897022;29;20032;-85
2023/04/20 10:22:07;;;;;;;5.63;2.40;;;;;;;-143.29;100.00;62188.47;4898269;29;20111;-85
2023/04/20 10:24:32;;;;;;;7.72;3.17;;;;;;;-143.29;100.00;62188.47;4898308;29;20160;-85
2023/04/20 10:26:58;;;;;;;10.02;3.17;;;;;;;-143.29;100.00;62188.47;4898025;29;20177;-85
2023/04/20 10:29:25;;;;;;;5.10;2.53;;;;;;;-143.29;100.00;62188.47;4897880;29;20032;-85
2023/04/20 10:31:50;;;;;;;6.13;3.00;;;;;;;-143.29;100.00;62188.47;4897929;29;20044;-84
2023/04/20 10:34:17;;;;;;;6.63;3.25;;;;;;;-143.29;100.00;62188.47;4897874;29;20076;-84
2023/04/20 10:36:42;;;;;;;4.95;2.25;;;;;;;-143.29;100.00;62188.47;4896042;29;20040;-84
2023/04/20 10:39:15;;;;;;;6.38;2.42;;;;;;;-143.29;100.00;62188.47;4897831;29;20052;-83
2023/04/20 10:41:52;;;;;;;4.88;2.22;;;;;;;-143.29;100.00;62188.47;4897896;29;20032;-82
2023/04/20 10:44:18;;;;;;;4.57;1.98;;;;;;;-143.29;100.00;62188.47;4897729;29;20491;-81
2023/04/20 10:46:48;;;;;;;7.72;2.50;;;;;;;-143.29;100.00;62188.47;4897544;29;20064;-81
2023/04/20 10:49:13;;;;;;;4.05;1.92;;;;;;;-143.29;100.00;62188.47;4897594;29;20088;-81
2023/04/20 10:51:49;;;;;;;10.40;3.10;;;;;;;-143.29;100.00;62188.47;4897586;29;20395;-81
2023/04/20 10:54:15;;;;;;;4.28;1.70;;;;;;;-143.29;100.00;62188.47;4897841;29;20076;-80
2023/04/20 10:56:41;;;;;;;5.70;2.40;;;;;;;-143.29;100.00;62188.47;4897447;29;20036;-80
2023/04/20 10:59:08;;;;;;;3.50;2.00;;;;;;;-143.29;100.00;62188.47;4897273;29;20399;-80
2023/04/20 11:01:34;;;;;;;4.70;2.10;;;;;;;-143.29;100.00;62188.47;4897538;29;20442;-80
2023/04/20 11:04:00;;;;;;;5.60;1.90;;;;;;;-143.29;100.00;62188.47;4897355;29;20116;-80